<?xml version="1.0" encoding="UTF-8" standalone="no" ?>
<gpx xmlns="http://www.topografix.com/GPX/1/1" xmlns:xsi="http://www.w3.org/2001/XMLSchema-instance" xsi:schemaLocation="http://www.topografix.com/GPX/1/1 http://www.topografix.com/GPX/1/1/gpx.xsd" version="1.1" creator="VisuGPX - https://www.visugpx.com">
  <metadata>
    <name>Banne Le poujol</name>
    <desc><![CDATA[Boucle autour de Banne, passage au Poujol un très beau hameau]]></desc>
  </metadata>
  <trk>
    <name><![CDATA[Banne Le poujol_1]]></name>
    <desc><![CDATA[<p>Heure de départ: 02/17/2017 13:51</p><p>Heure d'arrivée: 02/17/2017 15:58</p><p>Distance: 5,8 km (02:07)</p><p>Temps déplacement: 01:23</p><p>Vitesse moyenne: 2,71 km/h</p><p>Vitesse moyenne mouv.: 4,15 km/h</p><p>Vitesse Max.: 8,42km/h</p><p>Altitude minimale: 140 m</p><p>Altitude maximale: 291 m</p><p>Vitesse de montée: 230,6 m/h</p><p>Vitesse de descente: -314,3 m/h</p><p>Gain d'altitude: 242 m</p><p>Perte d'altitude: -251 m</p><p>Temps de montée: 01:03</p><p>Temps de descente: 00:48</p><hr align="center" width="480" style="height: 2px; width: 517px"/>

<p>Heure de départ: 02/17/2017 13:51</p><p>Heure d'arrivée: 02/17/2017 15:58</p><p>Distance: 5,8 km (02:07)</p><p>Temps déplacement: 01:23</p><p>Vitesse moyenne: 2,71 km/h</p><p>Vitesse moyenne mouv.: 4,15 km/h</p><p>Vitesse Max.: 8,42km/h</p><p>Altitude minimale: 140 m</p><p>Altitude maximale: 291 m</p><p>Vitesse de montée: 230,6 m/h</p><p>Vitesse de descente: -314,3 m/h</p><p>Gain d'altitude: 242 m</p><p>Perte d'altitude: -251 m</p><p>Temps de montée: 01:03</p><p>Temps de descente: 00:48</p><hr align="center" width="480" style="height: 2px; width: 517px"/>]]></desc>
    <trkseg>
      <trkpt lat="44.37269" lon="4.16626">
        <ele>150.8</ele>
        <extensions>
          <visugpx:TrkExtension xmlns:visugpx="https://www.visugpx.com/editgpx/">
            <visugpx:node>1</visugpx:node>
            </visugpx:TrkExtension>
        </extensions>
      </trkpt>
      <trkpt lat="44.37269" lon="4.1658">
        <ele>152.5</ele>
      </trkpt>
      <trkpt lat="44.37254" lon="4.16557">
        <ele>152.2</ele>
      </trkpt>
      <trkpt lat="44.37133" lon="4.16484">
        <ele>151</ele>
      </trkpt>
      <trkpt lat="44.37038" lon="4.16492">
        <ele>153.1</ele>
      </trkpt>
      <trkpt lat="44.36973" lon="4.16485">
        <ele>155</ele>
      </trkpt>
      <trkpt lat="44.36883" lon="4.16451">
        <ele>148.46</ele>
        <time>2017-02-17T13:26:36Z</time>
      </trkpt>
      <trkpt lat="44.36877" lon="4.16477">
        <ele>147.34</ele>
        <time>2017-02-17T13:26:54Z</time>
      </trkpt>
      <trkpt lat="44.36874" lon="4.16503">
        <ele>140.68</ele>
        <time>2017-02-17T13:27:14Z</time>
      </trkpt>
      <trkpt lat="44.3687" lon="4.16527">
        <ele>142.65</ele>
        <time>2017-02-17T13:27:31Z</time>
      </trkpt>
      <trkpt lat="44.36866" lon="4.16553">
        <ele>150.48</ele>
        <time>2017-02-17T13:27:47Z</time>
      </trkpt>
      <trkpt lat="44.36863" lon="4.1658">
        <ele>150.85</ele>
        <time>2017-02-17T13:28:02Z</time>
      </trkpt>
      <trkpt lat="44.3686" lon="4.16606">
        <ele>151.69</ele>
        <time>2017-02-17T13:28:18Z</time>
      </trkpt>
      <trkpt lat="44.36859" lon="4.16631">
        <ele>141.81</ele>
        <time>2017-02-17T13:28:37Z</time>
      </trkpt>
      <trkpt lat="44.36855" lon="4.16657">
        <ele>154.53</ele>
        <time>2017-02-17T13:31:18Z</time>
      </trkpt>
      <trkpt lat="44.36841" lon="4.16663">
        <ele>159.6</ele>
        <time>2017-02-17T13:31:41Z</time>
      </trkpt>
      <trkpt lat="44.36824" lon="4.16664">
        <ele>159.9</ele>
        <time>2017-02-17T13:31:59Z</time>
      </trkpt>
      <trkpt lat="44.36807" lon="4.16664">
        <ele>160</ele>
        <time>2017-02-17T13:32:19Z</time>
      </trkpt>
      <trkpt lat="44.36791" lon="4.16668">
        <ele>160.5</ele>
        <time>2017-02-17T13:32:28Z</time>
      </trkpt>
      <trkpt lat="44.36776" lon="4.16664">
        <ele>161.1</ele>
      </trkpt>
      <trkpt lat="44.36766" lon="4.16661">
        <ele>161.4</ele>
        <time>2017-02-17T13:32:42Z</time>
      </trkpt>
      <trkpt lat="44.36751" lon="4.16659">
        <ele>163.73</ele>
        <time>2017-02-17T13:32:58Z</time>
      </trkpt>
      <trkpt lat="44.36733" lon="4.16654">
        <ele>167.69</ele>
        <time>2017-02-17T13:33:14Z</time>
      </trkpt>
      <trkpt lat="44.36714" lon="4.16651">
        <ele>164.9</ele>
        <time>2017-02-17T13:33:34Z</time>
      </trkpt>
      <trkpt lat="44.36705" lon="4.16674">
        <ele>156.89</ele>
        <time>2017-02-17T13:35:14Z</time>
      </trkpt>
      <trkpt lat="44.36687" lon="4.16678">
        <ele>163.65</ele>
        <time>2017-02-17T13:35:29Z</time>
      </trkpt>
      <trkpt lat="44.36671" lon="4.16668">
        <ele>159.73</ele>
        <time>2017-02-17T13:35:47Z</time>
      </trkpt>
      <trkpt lat="44.36654" lon="4.16656">
        <ele>162.68</ele>
        <time>2017-02-17T13:36:02Z</time>
      </trkpt>
      <trkpt lat="44.36636" lon="4.16652">
        <ele>165.7</ele>
        <time>2017-02-17T13:36:22Z</time>
      </trkpt>
      <trkpt lat="44.36617" lon="4.16649">
        <ele>173.64</ele>
        <time>2017-02-17T13:36:40Z</time>
      </trkpt>
      <trkpt lat="44.366" lon="4.16658">
        <ele>163.64</ele>
        <time>2017-02-17T13:37:48Z</time>
      </trkpt>
      <trkpt lat="44.36582" lon="4.16654">
        <ele>159.48</ele>
        <time>2017-02-17T13:38:12Z</time>
      </trkpt>
      <trkpt lat="44.36566" lon="4.16639">
        <ele>169.7</ele>
        <time>2017-02-17T13:38:27Z</time>
      </trkpt>
      <trkpt lat="44.36548" lon="4.16633">
        <ele>165.34</ele>
        <time>2017-02-17T13:38:48Z</time>
      </trkpt>
      <trkpt lat="44.3653" lon="4.16636">
        <ele>163.78</ele>
        <time>2017-02-17T13:39:05Z</time>
      </trkpt>
      <trkpt lat="44.36512" lon="4.16639">
        <ele>167.67</ele>
        <time>2017-02-17T13:39:23Z</time>
      </trkpt>
      <trkpt lat="44.36493" lon="4.16645">
        <ele>164.69</ele>
        <time>2017-02-17T13:39:42Z</time>
      </trkpt>
      <trkpt lat="44.36475" lon="4.16648">
        <ele>161.9</ele>
        <time>2017-02-17T13:40:03Z</time>
      </trkpt>
      <trkpt lat="44.36456" lon="4.16645">
        <ele>169.65</ele>
        <time>2017-02-17T13:40:21Z</time>
      </trkpt>
      <trkpt lat="44.36438" lon="4.16641">
        <ele>170.73</ele>
        <time>2017-02-17T13:40:35Z</time>
      </trkpt>
      <trkpt lat="44.36419" lon="4.16644">
        <ele>171.84</ele>
        <time>2017-02-17T13:40:53Z</time>
      </trkpt>
      <trkpt lat="44.36402" lon="4.16641">
        <ele>171.88</ele>
        <time>2017-02-17T13:41:11Z</time>
      </trkpt>
      <trkpt lat="44.36383" lon="4.16642">
        <ele>173.69</ele>
        <time>2017-02-17T13:41:29Z</time>
      </trkpt>
      <trkpt lat="44.36364" lon="4.16641">
        <ele>168.69</ele>
        <time>2017-02-17T13:41:45Z</time>
      </trkpt>
      <trkpt lat="44.36346" lon="4.16637">
        <ele>170.74</ele>
        <time>2017-02-17T13:42:05Z</time>
      </trkpt>
      <trkpt lat="44.36328" lon="4.16631">
        <ele>175.64</ele>
        <time>2017-02-17T13:42:20Z</time>
      </trkpt>
      <trkpt lat="44.36309" lon="4.16632">
        <ele>175.29</ele>
        <time>2017-02-17T13:42:39Z</time>
      </trkpt>
      <trkpt lat="44.36291" lon="4.16624">
        <ele>174.74</ele>
        <time>2017-02-17T13:42:51Z</time>
      </trkpt>
      <trkpt lat="44.36273" lon="4.1663">
        <ele>177.69</ele>
        <time>2017-02-17T13:43:09Z</time>
      </trkpt>
      <trkpt lat="44.36255" lon="4.16627">
        <ele>177.69</ele>
        <time>2017-02-17T13:43:24Z</time>
      </trkpt>
      <trkpt lat="44.36237" lon="4.16636">
        <ele>179.44</ele>
        <time>2017-02-17T13:43:40Z</time>
      </trkpt>
      <trkpt lat="44.3622" lon="4.16645">
        <ele>177.74</ele>
        <time>2017-02-17T13:43:56Z</time>
      </trkpt>
      <trkpt lat="44.36201" lon="4.16649">
        <ele>181.72</ele>
        <time>2017-02-17T13:44:13Z</time>
      </trkpt>
      <trkpt lat="44.36185" lon="4.16662">
        <ele>172.88</ele>
        <time>2017-02-17T13:44:34Z</time>
      </trkpt>
      <trkpt lat="44.36167" lon="4.16664">
        <ele>170.73</ele>
        <time>2017-02-17T13:45:02Z</time>
      </trkpt>
      <trkpt lat="44.36162" lon="4.16688">
        <ele>171.66</ele>
        <time>2017-02-17T13:45:20Z</time>
      </trkpt>
      <trkpt lat="44.36148" lon="4.16705">
        <ele>173.68</ele>
        <time>2017-02-17T13:45:35Z</time>
      </trkpt>
      <trkpt lat="44.36134" lon="4.16723">
        <ele>175.66</ele>
        <time>2017-02-17T13:45:54Z</time>
      </trkpt>
      <trkpt lat="44.36116" lon="4.16733">
        <ele>180.67</ele>
        <time>2017-02-17T13:46:10Z</time>
      </trkpt>
      <trkpt lat="44.36098" lon="4.16744">
        <ele>191.41</ele>
        <time>2017-02-17T13:46:27Z</time>
      </trkpt>
      <trkpt lat="44.3608" lon="4.1675">
        <ele>192.66</ele>
        <time>2017-02-17T13:46:46Z</time>
      </trkpt>
      <trkpt lat="44.36062" lon="4.16759">
        <ele>188.69</ele>
        <time>2017-02-17T13:47:11Z</time>
      </trkpt>
      <trkpt lat="44.36043" lon="4.16758">
        <ele>188.49</ele>
        <time>2017-02-17T13:47:29Z</time>
      </trkpt>
      <trkpt lat="44.36025" lon="4.16758">
        <ele>199.49</ele>
        <time>2017-02-17T13:54:06Z</time>
      </trkpt>
      <trkpt lat="44.36007" lon="4.1676">
        <ele>198.57</ele>
        <time>2017-02-17T13:54:17Z</time>
      </trkpt>
      <trkpt lat="44.35989" lon="4.16767">
        <ele>206.65</ele>
        <time>2017-02-17T13:54:42Z</time>
      </trkpt>
      <trkpt lat="44.35972" lon="4.16774">
        <ele>209.04</ele>
        <time>2017-02-17T13:55:07Z</time>
      </trkpt>
      <trkpt lat="44.35954" lon="4.1678">
        <ele>206.89</ele>
        <time>2017-02-17T13:55:27Z</time>
      </trkpt>
      <trkpt lat="44.35936" lon="4.1678">
        <ele>209.85</ele>
        <time>2017-02-17T13:55:44Z</time>
      </trkpt>
      <trkpt lat="44.35917" lon="4.16778">
        <ele>216.3</ele>
        <time>2017-02-17T13:55:59Z</time>
      </trkpt>
      <trkpt lat="44.359" lon="4.16767">
        <ele>221.89</ele>
        <time>2017-02-17T13:56:25Z</time>
      </trkpt>
      <trkpt lat="44.35884" lon="4.16755">
        <ele>215.56</ele>
        <time>2017-02-17T13:56:45Z</time>
      </trkpt>
      <trkpt lat="44.35866" lon="4.1675">
        <ele>211.66</ele>
        <time>2017-02-17T13:57:09Z</time>
      </trkpt>
      <trkpt lat="44.35848" lon="4.1676">
        <ele>209.62</ele>
        <time>2017-02-17T13:57:28Z</time>
      </trkpt>
      <trkpt lat="44.35831" lon="4.16768">
        <ele>215</ele>
        <time>2017-02-17T13:58:06Z</time>
      </trkpt>
      <trkpt lat="44.35813" lon="4.16772">
        <ele>220.29</ele>
        <time>2017-02-17T13:58:40Z</time>
      </trkpt>
      <trkpt lat="44.35794" lon="4.16775">
        <ele>219.65</ele>
        <time>2017-02-17T13:58:54Z</time>
      </trkpt>
      <trkpt lat="44.35775" lon="4.16774">
        <ele>218.29</ele>
        <time>2017-02-17T13:59:30Z</time>
      </trkpt>
      <trkpt lat="44.35756" lon="4.16777">
        <ele>220.65</ele>
        <time>2017-02-17T13:59:56Z</time>
      </trkpt>
      <trkpt lat="44.35738" lon="4.16777">
        <ele>227.73</ele>
        <time>2017-02-17T14:00:20Z</time>
      </trkpt>
      <trkpt lat="44.3572" lon="4.1678">
        <ele>226.7</ele>
        <time>2017-02-17T14:00:46Z</time>
      </trkpt>
      <trkpt lat="44.35701" lon="4.16785">
        <ele>229.7</ele>
        <time>2017-02-17T14:01:11Z</time>
      </trkpt>
      <trkpt lat="44.35684" lon="4.16775">
        <ele>228.73</ele>
        <time>2017-02-17T14:01:24Z</time>
      </trkpt>
      <trkpt lat="44.35666" lon="4.16777">
        <ele>229.29</ele>
        <time>2017-02-17T14:01:47Z</time>
      </trkpt>
      <trkpt lat="44.35647" lon="4.16773">
        <ele>233.29</ele>
        <time>2017-02-17T14:02:11Z</time>
      </trkpt>
      <trkpt lat="44.35629" lon="4.16768">
        <ele>232.69</ele>
        <time>2017-02-17T14:02:34Z</time>
      </trkpt>
      <trkpt lat="44.35611" lon="4.16764">
        <ele>234.45</ele>
        <time>2017-02-17T14:02:55Z</time>
      </trkpt>
      <trkpt lat="44.35593" lon="4.16757">
        <ele>232.48</ele>
        <time>2017-02-17T14:03:17Z</time>
      </trkpt>
      <trkpt lat="44.35575" lon="4.16757">
        <ele>236.62</ele>
        <time>2017-02-17T14:03:42Z</time>
      </trkpt>
      <trkpt lat="44.35557" lon="4.16754">
        <ele>233.48</ele>
        <time>2017-02-17T14:08:08Z</time>
      </trkpt>
      <trkpt lat="44.35539" lon="4.1676">
        <ele>234.89</ele>
        <time>2017-02-17T14:08:25Z</time>
      </trkpt>
      <trkpt lat="44.35521" lon="4.16767">
        <ele>233.71</ele>
        <time>2017-02-17T14:08:44Z</time>
      </trkpt>
      <trkpt lat="44.35503" lon="4.16778">
        <ele>241.54</ele>
        <time>2017-02-17T14:09:03Z</time>
      </trkpt>
      <trkpt lat="44.35486" lon="4.16789">
        <ele>238.89</ele>
        <time>2017-02-17T14:09:18Z</time>
      </trkpt>
      <trkpt lat="44.3547" lon="4.168">
        <ele>234.7</ele>
        <time>2017-02-17T14:09:34Z</time>
      </trkpt>
      <trkpt lat="44.35451" lon="4.16808">
        <ele>234.25</ele>
        <time>2017-02-17T14:09:51Z</time>
      </trkpt>
      <trkpt lat="44.35434" lon="4.16811">
        <ele>235.65</ele>
        <time>2017-02-17T14:10:08Z</time>
      </trkpt>
      <trkpt lat="44.35416" lon="4.16812">
        <ele>230.94</ele>
        <time>2017-02-17T14:10:24Z</time>
      </trkpt>
      <trkpt lat="44.35413" lon="4.16786">
        <ele>228.7</ele>
        <time>2017-02-17T14:10:45Z</time>
      </trkpt>
      <trkpt lat="44.35416" lon="4.1676">
        <ele>226.5</ele>
        <time>2017-02-17T14:11:05Z</time>
      </trkpt>
      <trkpt lat="44.35413" lon="4.16734">
        <ele>229.5</ele>
        <time>2017-02-17T14:11:23Z</time>
      </trkpt>
      <trkpt lat="44.35414" lon="4.16709">
        <ele>229.72</ele>
        <time>2017-02-17T14:11:43Z</time>
      </trkpt>
      <trkpt lat="44.35407" lon="4.16685">
        <ele>224.7</ele>
        <time>2017-02-17T14:12:05Z</time>
      </trkpt>
      <trkpt lat="44.35407" lon="4.16659">
        <ele>233.57</ele>
        <time>2017-02-17T14:12:58Z</time>
      </trkpt>
      <trkpt lat="44.35409" lon="4.16633">
        <ele>237.92</ele>
        <time>2017-02-17T14:13:27Z</time>
      </trkpt>
      <trkpt lat="44.35422" lon="4.16616">
        <ele>243.49</ele>
        <time>2017-02-17T14:13:56Z</time>
      </trkpt>
      <trkpt lat="44.3544" lon="4.16608">
        <ele>236.9</ele>
        <time>2017-02-17T14:14:23Z</time>
      </trkpt>
      <trkpt lat="44.35458" lon="4.16604">
        <ele>237.65</ele>
        <time>2017-02-17T14:14:38Z</time>
      </trkpt>
      <trkpt lat="44.35475" lon="4.16593">
        <ele>246.68</ele>
        <time>2017-02-17T14:15:30Z</time>
      </trkpt>
      <trkpt lat="44.3549" lon="4.16579">
        <ele>245.29</ele>
        <time>2017-02-17T14:17:35Z</time>
      </trkpt>
      <trkpt lat="44.35498" lon="4.16557">
        <ele>245.69</ele>
        <time>2017-02-17T14:17:57Z</time>
      </trkpt>
      <trkpt lat="44.35501" lon="4.16531">
        <ele>245.89</ele>
        <time>2017-02-17T14:18:18Z</time>
      </trkpt>
      <trkpt lat="44.35511" lon="4.16508">
        <ele>246.65</ele>
        <time>2017-02-17T14:18:34Z</time>
      </trkpt>
      <trkpt lat="44.35516" lon="4.16483">
        <ele>252.46</ele>
        <time>2017-02-17T14:18:58Z</time>
      </trkpt>
      <trkpt lat="44.3553" lon="4.16467">
        <ele>252.65</ele>
        <time>2017-02-17T14:21:26Z</time>
      </trkpt>
      <trkpt lat="44.35548" lon="4.16472">
        <ele>256.69</ele>
        <time>2017-02-17T14:21:44Z</time>
      </trkpt>
      <trkpt lat="44.35558" lon="4.16451">
        <ele>257.69</ele>
        <time>2017-02-17T14:22:38Z</time>
      </trkpt>
      <trkpt lat="44.35571" lon="4.16433">
        <ele>254.28</ele>
        <time>2017-02-17T14:23:27Z</time>
      </trkpt>
      <trkpt lat="44.35582" lon="4.16414">
        <ele>251.49</ele>
        <time>2017-02-17T14:23:48Z</time>
      </trkpt>
      <trkpt lat="44.35595" lon="4.16395">
        <ele>249.65</ele>
        <time>2017-02-17T14:24:19Z</time>
      </trkpt>
      <trkpt lat="44.35608" lon="4.16377">
        <ele>245.66</ele>
        <time>2017-02-17T14:24:50Z</time>
      </trkpt>
      <trkpt lat="44.35625" lon="4.16365">
        <ele>236.7</ele>
        <time>2017-02-17T14:25:13Z</time>
      </trkpt>
      <trkpt lat="44.35642" lon="4.16355">
        <ele>232.1</ele>
        <time>2017-02-17T14:25:42Z</time>
      </trkpt>
      <trkpt lat="44.35656" lon="4.16339">
        <ele>237.97</ele>
        <time>2017-02-17T14:25:56Z</time>
      </trkpt>
      <trkpt lat="44.35672" lon="4.16326">
        <ele>234.7</ele>
        <time>2017-02-17T14:26:25Z</time>
      </trkpt>
      <trkpt lat="44.35682" lon="4.16305">
        <ele>236.18</ele>
        <time>2017-02-17T14:26:59Z</time>
      </trkpt>
      <trkpt lat="44.35689" lon="4.16282">
        <ele>227.89</ele>
        <time>2017-02-17T14:27:23Z</time>
      </trkpt>
      <trkpt lat="44.357" lon="4.16261">
        <ele>229.69</ele>
        <time>2017-02-17T14:27:38Z</time>
      </trkpt>
      <trkpt lat="44.35709" lon="4.16239">
        <ele>225.89</ele>
        <time>2017-02-17T14:27:57Z</time>
      </trkpt>
      <trkpt lat="44.35714" lon="4.16215">
        <ele>224.62</ele>
        <time>2017-02-17T14:28:27Z</time>
      </trkpt>
      <trkpt lat="44.35722" lon="4.16192">
        <ele>217.9</ele>
        <time>2017-02-17T14:29:26Z</time>
      </trkpt>
      <trkpt lat="44.35739" lon="4.162">
        <ele>216.64</ele>
        <time>2017-02-17T14:30:11Z</time>
      </trkpt>
      <trkpt lat="44.35757" lon="4.16192">
        <ele>214.7</ele>
        <time>2017-02-17T14:30:49Z</time>
      </trkpt>
      <trkpt lat="44.35775" lon="4.16186">
        <ele>206.85</ele>
        <time>2017-02-17T14:31:43Z</time>
      </trkpt>
      <trkpt lat="44.35792" lon="4.16175">
        <ele>203.77</ele>
        <time>2017-02-17T14:32:05Z</time>
      </trkpt>
      <trkpt lat="44.3581" lon="4.16172">
        <ele>200.91</ele>
        <time>2017-02-17T14:32:45Z</time>
      </trkpt>
      <trkpt lat="44.35829" lon="4.16169">
        <ele>200.89</ele>
        <time>2017-02-17T14:33:38Z</time>
      </trkpt>
      <trkpt lat="44.35846" lon="4.1616">
        <ele>197.7</ele>
        <time>2017-02-17T14:34:03Z</time>
      </trkpt>
      <trkpt lat="44.35856" lon="4.16157">
        <ele>195.2</ele>
        <time>2017-02-17T14:35:03Z</time>
      </trkpt>
      <trkpt lat="44.35871" lon="4.16168">
        <ele>195.6</ele>
      </trkpt>
      <trkpt lat="44.35879" lon="4.16173">
        <ele>194.73</ele>
        <time>2017-02-17T14:37:05Z</time>
      </trkpt>
      <trkpt lat="44.35895" lon="4.16161">
        <ele>194.77</ele>
        <time>2017-02-17T14:37:32Z</time>
      </trkpt>
      <trkpt lat="44.3591" lon="4.16147">
        <ele>197.48</ele>
        <time>2017-02-17T14:38:04Z</time>
      </trkpt>
      <trkpt lat="44.35925" lon="4.16132">
        <ele>202.69</ele>
        <time>2017-02-17T14:38:29Z</time>
      </trkpt>
      <trkpt lat="44.35935" lon="4.1611">
        <ele>203.65</ele>
        <time>2017-02-17T14:38:57Z</time>
      </trkpt>
      <trkpt lat="44.35929" lon="4.16086">
        <ele>203.64</ele>
        <time>2017-02-17T14:39:30Z</time>
      </trkpt>
      <trkpt lat="44.3594" lon="4.16072">
        <ele>212.7</ele>
        <time>2017-02-17T14:40:02Z</time>
      </trkpt>
      <trkpt lat="44.35949" lon="4.16051">
        <ele>214.2</ele>
        <time>2017-02-17T14:40:19Z</time>
      </trkpt>
      <trkpt lat="44.35966" lon="4.16053">
        <ele>214</ele>
        <time>2017-02-17T14:40:51Z</time>
      </trkpt>
      <trkpt lat="44.35979" lon="4.16032">
        <ele>200.69</ele>
        <time>2017-02-17T14:44:44Z</time>
      </trkpt>
      <trkpt lat="44.35989" lon="4.1601">
        <ele>202.46</ele>
        <time>2017-02-17T14:45:04Z</time>
      </trkpt>
      <trkpt lat="44.35992" lon="4.15985">
        <ele>199.7</ele>
        <time>2017-02-17T14:45:24Z</time>
      </trkpt>
      <trkpt lat="44.35985" lon="4.15961">
        <ele>199.68</ele>
        <time>2017-02-17T14:45:39Z</time>
      </trkpt>
      <trkpt lat="44.35983" lon="4.15945">
        <ele>202.8</ele>
      </trkpt>
      <trkpt lat="44.35993" lon="4.15937">
        <ele>198.73</ele>
        <time>2017-02-17T14:45:55Z</time>
      </trkpt>
      <trkpt lat="44.36011" lon="4.15934">
        <ele>203.72</ele>
        <time>2017-02-17T14:46:12Z</time>
      </trkpt>
      <trkpt lat="44.3603" lon="4.15933">
        <ele>203.64</ele>
        <time>2017-02-17T14:46:28Z</time>
      </trkpt>
      <trkpt lat="44.36048" lon="4.1593">
        <ele>203.84</ele>
        <time>2017-02-17T14:46:48Z</time>
      </trkpt>
      <trkpt lat="44.36067" lon="4.1593">
        <ele>208.64</ele>
        <time>2017-02-17T14:47:06Z</time>
      </trkpt>
      <trkpt lat="44.36085" lon="4.15936">
        <ele>208.85</ele>
        <time>2017-02-17T14:47:25Z</time>
      </trkpt>
      <trkpt lat="44.36104" lon="4.15939">
        <ele>211.33</ele>
        <time>2017-02-17T14:47:47Z</time>
      </trkpt>
      <trkpt lat="44.36122" lon="4.1594">
        <ele>218.52</ele>
        <time>2017-02-17T14:48:03Z</time>
      </trkpt>
      <trkpt lat="44.3614" lon="4.15936">
        <ele>217.8</ele>
        <time>2017-02-17T14:48:22Z</time>
      </trkpt>
      <trkpt lat="44.36161" lon="4.15937">
        <ele>219.8</ele>
        <time>2017-02-17T14:48:39Z</time>
      </trkpt>
      <trkpt lat="44.36181" lon="4.15941">
        <ele>219.7</ele>
        <time>2017-02-17T14:48:54Z</time>
      </trkpt>
      <trkpt lat="44.36191" lon="4.15935">
        <ele>221.6</ele>
        <time>2017-02-17T14:49:12Z</time>
      </trkpt>
      <trkpt lat="44.36198" lon="4.15919">
        <ele>224.6</ele>
        <time>2017-02-17T14:49:30Z</time>
      </trkpt>
      <trkpt lat="44.36208" lon="4.15894">
        <ele>225.2</ele>
        <time>2017-02-17T14:49:50Z</time>
      </trkpt>
      <trkpt lat="44.36216" lon="4.15874">
        <ele>227.3</ele>
        <time>2017-02-17T14:50:09Z</time>
      </trkpt>
      <trkpt lat="44.36225" lon="4.15848">
        <ele>232.3</ele>
        <time>2017-02-17T14:50:29Z</time>
      </trkpt>
      <trkpt lat="44.36232" lon="4.15826">
        <ele>235.8</ele>
        <time>2017-02-17T14:50:49Z</time>
      </trkpt>
      <trkpt lat="44.36239" lon="4.15799">
        <ele>238.3</ele>
        <time>2017-02-17T14:51:09Z</time>
      </trkpt>
      <trkpt lat="44.36243" lon="4.15782">
        <ele>239.3</ele>
      </trkpt>
      <trkpt lat="44.36253" lon="4.15771">
        <ele>239.6</ele>
        <time>2017-02-17T14:51:32Z</time>
      </trkpt>
      <trkpt lat="44.36269" lon="4.15771">
        <ele>236.5</ele>
        <time>2017-02-17T14:51:54Z</time>
      </trkpt>
      <trkpt lat="44.36287" lon="4.1577">
        <ele>234.73</ele>
        <time>2017-02-17T14:52:11Z</time>
      </trkpt>
      <trkpt lat="44.36305" lon="4.15773">
        <ele>238.72</ele>
        <time>2017-02-17T14:52:33Z</time>
      </trkpt>
      <trkpt lat="44.36324" lon="4.15781">
        <ele>238.16</ele>
        <time>2017-02-17T14:52:53Z</time>
      </trkpt>
      <trkpt lat="44.36341" lon="4.15788">
        <ele>240.48</ele>
        <time>2017-02-17T14:53:10Z</time>
      </trkpt>
      <trkpt lat="44.3636" lon="4.15788">
        <ele>245.08</ele>
        <time>2017-02-17T14:53:27Z</time>
      </trkpt>
      <trkpt lat="44.36378" lon="4.15792">
        <ele>245.68</ele>
        <time>2017-02-17T14:53:50Z</time>
      </trkpt>
      <trkpt lat="44.36397" lon="4.15792">
        <ele>254.9</ele>
        <time>2017-02-17T14:54:07Z</time>
      </trkpt>
      <trkpt lat="44.36414" lon="4.15794">
        <ele>257</ele>
        <time>2017-02-17T14:54:42Z</time>
      </trkpt>
      <trkpt lat="44.36434" lon="4.15795">
        <ele>260.9</ele>
        <time>2017-02-17T14:54:59Z</time>
      </trkpt>
      <trkpt lat="44.3645" lon="4.15784">
        <ele>260.29</ele>
        <time>2017-02-17T14:55:18Z</time>
      </trkpt>
      <trkpt lat="44.36456" lon="4.15781">
        <ele>263.4</ele>
      </trkpt>
      <trkpt lat="44.36459" lon="4.15766">
        <ele>264</ele>
        <time>2017-02-17T14:55:44Z</time>
      </trkpt>
      <trkpt lat="44.36458" lon="4.1574">
        <ele>261.69</ele>
        <time>2017-02-17T14:56:20Z</time>
      </trkpt>
      <trkpt lat="44.36457" lon="4.15713">
        <ele>268.48</ele>
        <time>2017-02-17T14:56:42Z</time>
      </trkpt>
      <trkpt lat="44.36461" lon="4.15702">
        <ele>270.4</ele>
      </trkpt>
      <trkpt lat="44.36471" lon="4.15696">
        <ele>265.69</ele>
        <time>2017-02-17T14:57:16Z</time>
      </trkpt>
      <trkpt lat="44.36484" lon="4.15678">
        <ele>268.72</ele>
        <time>2017-02-17T14:57:36Z</time>
      </trkpt>
      <trkpt lat="44.36495" lon="4.15644">
        <ele>276.2</ele>
        <time>2017-02-17T14:57:52Z</time>
      </trkpt>
      <trkpt lat="44.36504" lon="4.15634">
        <ele>277.1</ele>
        <time>2017-02-17T14:58:21Z</time>
      </trkpt>
      <trkpt lat="44.36511" lon="4.15635">
        <ele>277.4</ele>
        <time>2017-02-17T14:58:45Z</time>
      </trkpt>
      <trkpt lat="44.36513" lon="4.15635">
        <ele>277.5</ele>
        <time>2017-02-17T12:51:05Z</time>
      </trkpt>
      <trkpt lat="44.36521" lon="4.15627">
        <ele>277.8</ele>
        <time>2017-02-17T12:51:37Z</time>
      </trkpt>
      <trkpt lat="44.36523" lon="4.15618">
        <ele>277.8</ele>
      </trkpt>
      <trkpt lat="44.36529" lon="4.15613">
        <ele>277.9</ele>
        <time>2017-02-17T12:51:55Z</time>
      </trkpt>
      <trkpt lat="44.36533" lon="4.1561">
        <ele>291.29</ele>
        <time>2017-02-17T12:52:58Z</time>
      </trkpt>
      <trkpt lat="44.36546" lon="4.15608">
        <ele>276.2</ele>
        <time>2017-02-17T12:53:25Z</time>
      </trkpt>
      <trkpt lat="44.36563" lon="4.15586">
        <ele>275.7</ele>
        <time>2017-02-17T12:53:35Z</time>
      </trkpt>
      <trkpt lat="44.36575" lon="4.15567">
        <ele>276</ele>
        <time>2017-02-17T12:53:50Z</time>
      </trkpt>
      <trkpt lat="44.36594" lon="4.15545">
        <ele>276</ele>
        <time>2017-02-17T12:54:03Z</time>
      </trkpt>
      <trkpt lat="44.3661" lon="4.15537">
        <ele>275.1</ele>
        <time>2017-02-17T12:54:19Z</time>
      </trkpt>
      <trkpt lat="44.36628" lon="4.15532">
        <ele>273.6</ele>
        <time>2017-02-17T12:54:33Z</time>
      </trkpt>
      <trkpt lat="44.36646" lon="4.15531">
        <ele>282.49</ele>
        <time>2017-02-17T12:54:50Z</time>
      </trkpt>
      <trkpt lat="44.36664" lon="4.1553">
        <ele>276.53</ele>
        <time>2017-02-17T12:55:07Z</time>
      </trkpt>
      <trkpt lat="44.36674" lon="4.1553">
        <ele>270.4</ele>
        <time>2017-02-17T12:55:28Z</time>
      </trkpt>
      <trkpt lat="44.36682" lon="4.1553">
        <ele>270.1</ele>
      </trkpt>
      <trkpt lat="44.36702" lon="4.15529">
        <ele>269.6</ele>
        <time>2017-02-17T12:55:45Z</time>
      </trkpt>
      <trkpt lat="44.36722" lon="4.1553">
        <ele>268.6</ele>
        <time>2017-02-17T12:56:00Z</time>
      </trkpt>
      <trkpt lat="44.36738" lon="4.15526">
        <ele>268.2</ele>
        <time>2017-02-17T12:56:13Z</time>
      </trkpt>
      <trkpt lat="44.36757" lon="4.15523">
        <ele>266.6</ele>
        <time>2017-02-17T12:56:32Z</time>
      </trkpt>
      <trkpt lat="44.36771" lon="4.15519">
        <ele>265.3</ele>
        <time>2017-02-17T12:56:48Z</time>
      </trkpt>
      <trkpt lat="44.36785" lon="4.15517">
        <ele>264.1</ele>
      </trkpt>
      <trkpt lat="44.36794" lon="4.15519">
        <ele>277.89</ele>
        <time>2017-02-17T12:56:59Z</time>
      </trkpt>
      <trkpt lat="44.36811" lon="4.15534">
        <ele>261.6</ele>
        <time>2017-02-17T12:57:14Z</time>
      </trkpt>
      <trkpt lat="44.36818" lon="4.15518">
        <ele>263</ele>
        <time>2017-02-17T12:57:28Z</time>
      </trkpt>
      <trkpt lat="44.36822" lon="4.15494">
        <ele>264.2</ele>
        <time>2017-02-17T12:57:42Z</time>
      </trkpt>
      <trkpt lat="44.36824" lon="4.15481">
        <ele>264.5</ele>
        <time>2017-02-17T12:58:02Z</time>
      </trkpt>
      <trkpt lat="44.36825" lon="4.15463">
        <ele>263.5</ele>
        <time>2017-02-17T12:58:16Z</time>
      </trkpt>
      <trkpt lat="44.36829" lon="4.15459">
        <ele>262.6</ele>
      </trkpt>
      <trkpt lat="44.36828" lon="4.15449">
        <ele>261.6</ele>
      </trkpt>
      <trkpt lat="44.36836" lon="4.15446">
        <ele>259.5</ele>
      </trkpt>
      <trkpt lat="44.36832" lon="4.15432">
        <ele>257.2</ele>
        <time>2017-02-17T12:59:15Z</time>
      </trkpt>
      <trkpt lat="44.36827" lon="4.15402">
        <ele>252.8</ele>
      </trkpt>
      <trkpt lat="44.36826" lon="4.15394">
        <ele>251.8</ele>
      </trkpt>
      <trkpt lat="44.36829" lon="4.15392">
        <ele>250.4</ele>
        <time>2017-02-17T12:59:33Z</time>
      </trkpt>
      <trkpt lat="44.36845" lon="4.15415">
        <ele>242.7</ele>
        <time>2017-02-17T13:00:53Z</time>
      </trkpt>
      <trkpt lat="44.3686" lon="4.15429">
        <ele>239.73</ele>
        <time>2017-02-17T13:01:22Z</time>
      </trkpt>
      <trkpt lat="44.36878" lon="4.15432">
        <ele>245.48</ele>
        <time>2017-02-17T13:01:51Z</time>
      </trkpt>
      <trkpt lat="44.36896" lon="4.15423">
        <ele>237.13</ele>
        <time>2017-02-17T13:02:31Z</time>
      </trkpt>
      <trkpt lat="44.36915" lon="4.15426">
        <ele>231.84</ele>
        <time>2017-02-17T13:04:01Z</time>
      </trkpt>
      <trkpt lat="44.36932" lon="4.15437">
        <ele>222.69</ele>
        <time>2017-02-17T13:04:21Z</time>
      </trkpt>
      <trkpt lat="44.36949" lon="4.15449">
        <ele>220.49</ele>
        <time>2017-02-17T13:04:38Z</time>
      </trkpt>
      <trkpt lat="44.36965" lon="4.15461">
        <ele>224.49</ele>
        <time>2017-02-17T13:04:53Z</time>
      </trkpt>
      <trkpt lat="44.3698" lon="4.15475">
        <ele>219.74</ele>
        <time>2017-02-17T13:05:13Z</time>
      </trkpt>
      <trkpt lat="44.36994" lon="4.15492">
        <ele>216.64</ele>
        <time>2017-02-17T13:05:31Z</time>
      </trkpt>
      <trkpt lat="44.37009" lon="4.15509">
        <ele>212.73</ele>
        <time>2017-02-17T13:05:52Z</time>
      </trkpt>
      <trkpt lat="44.37024" lon="4.15523">
        <ele>218.61</ele>
        <time>2017-02-17T13:06:03Z</time>
      </trkpt>
      <trkpt lat="44.3704" lon="4.15534">
        <ele>220.48</ele>
        <time>2017-02-17T13:06:36Z</time>
      </trkpt>
      <trkpt lat="44.37056" lon="4.15548">
        <ele>212.09</ele>
        <time>2017-02-17T13:07:31Z</time>
      </trkpt>
      <trkpt lat="44.37067" lon="4.15568">
        <ele>201.69</ele>
        <time>2017-02-17T13:07:57Z</time>
      </trkpt>
      <trkpt lat="44.37082" lon="4.15584">
        <ele>201.89</ele>
        <time>2017-02-17T13:08:10Z</time>
      </trkpt>
      <trkpt lat="44.37096" lon="4.15601">
        <ele>203.53</ele>
        <time>2017-02-17T13:08:32Z</time>
      </trkpt>
      <trkpt lat="44.37102" lon="4.15624">
        <ele>208.65</ele>
        <time>2017-02-17T13:08:48Z</time>
      </trkpt>
      <trkpt lat="44.37108" lon="4.15649">
        <ele>202.5</ele>
        <time>2017-02-17T13:09:11Z</time>
      </trkpt>
      <trkpt lat="44.37105" lon="4.15675">
        <ele>203.29</ele>
        <time>2017-02-17T13:09:29Z</time>
      </trkpt>
      <trkpt lat="44.37105" lon="4.15702">
        <ele>200.89</ele>
        <time>2017-02-17T13:09:43Z</time>
      </trkpt>
      <trkpt lat="44.37111" lon="4.15726">
        <ele>201.76</ele>
        <time>2017-02-17T13:10:10Z</time>
      </trkpt>
      <trkpt lat="44.37118" lon="4.1575">
        <ele>200.49</ele>
        <time>2017-02-17T13:10:31Z</time>
      </trkpt>
      <trkpt lat="44.37128" lon="4.15772">
        <ele>198.74</ele>
        <time>2017-02-17T13:11:21Z</time>
      </trkpt>
      <trkpt lat="44.37137" lon="4.15796">
        <ele>189.89</ele>
        <time>2017-02-17T13:11:46Z</time>
      </trkpt>
      <trkpt lat="44.37147" lon="4.15817">
        <ele>185.49</ele>
        <time>2017-02-17T13:12:17Z</time>
      </trkpt>
      <trkpt lat="44.37161" lon="4.15833">
        <ele>178.44</ele>
        <time>2017-02-17T13:12:40Z</time>
      </trkpt>
      <trkpt lat="44.37178" lon="4.15845">
        <ele>181.84</ele>
        <time>2017-02-17T13:13:00Z</time>
      </trkpt>
      <trkpt lat="44.37194" lon="4.15856">
        <ele>184.34</ele>
        <time>2017-02-17T13:13:21Z</time>
      </trkpt>
      <trkpt lat="44.37212" lon="4.15855">
        <ele>177.69</ele>
        <time>2017-02-17T13:13:43Z</time>
      </trkpt>
      <trkpt lat="44.37229" lon="4.15867">
        <ele>175.94</ele>
        <time>2017-02-17T13:14:01Z</time>
      </trkpt>
      <trkpt lat="44.37238" lon="4.15888">
        <ele>171.45</ele>
        <time>2017-02-17T13:14:21Z</time>
      </trkpt>
      <trkpt lat="44.37239" lon="4.15913">
        <ele>167.88</ele>
        <time>2017-02-17T13:14:43Z</time>
      </trkpt>
      <trkpt lat="44.37232" lon="4.15941">
        <ele>176.9</ele>
        <time>2017-02-17T13:15:06Z</time>
      </trkpt>
      <trkpt lat="44.37254" lon="4.15956">
        <ele>166.85</ele>
        <time>2017-02-17T13:15:25Z</time>
      </trkpt>
      <trkpt lat="44.37271" lon="4.15967">
        <ele>169.49</ele>
        <time>2017-02-17T13:15:42Z</time>
      </trkpt>
      <trkpt lat="44.37279" lon="4.15989">
        <ele>166.28</ele>
        <time>2017-02-17T13:16:01Z</time>
      </trkpt>
      <trkpt lat="44.37277" lon="4.16007">
        <ele>170</ele>
        <time>2017-02-17T13:16:24Z</time>
      </trkpt>
      <trkpt lat="44.37276" lon="4.16032">
        <ele>169.5</ele>
        <time>2017-02-17T13:16:53Z</time>
      </trkpt>
      <trkpt lat="44.37274" lon="4.16061">
        <ele>167.2</ele>
        <time>2017-02-17T13:17:10Z</time>
      </trkpt>
      <trkpt lat="44.37274" lon="4.16089">
        <ele>164.3</ele>
        <time>2017-02-17T13:17:34Z</time>
      </trkpt>
      <trkpt lat="44.37276" lon="4.16102">
        <ele>163.5</ele>
        <time>2017-02-17T13:17:46Z</time>
      </trkpt>
      <trkpt lat="44.37275" lon="4.16108">
        <ele>163.2</ele>
        <time>2017-02-17T13:18:05Z</time>
      </trkpt>
      <trkpt lat="44.37272" lon="4.16116">
        <ele>162.8</ele>
      </trkpt>
      <trkpt lat="44.37273" lon="4.16166">
        <ele>162</ele>
        <time>2017-02-17T13:18:34Z</time>
      </trkpt>
      <trkpt lat="44.3727" lon="4.16622">
        <ele>151</ele>
        <extensions>
          <visugpx:TrkExtension xmlns:visugpx="https://www.visugpx.com/editgpx/">
            <visugpx:node>2</visugpx:node>
            </visugpx:TrkExtension>
        </extensions>
      </trkpt>
    </trkseg>
  </trk>
</gpx>